Time;durP1;ratioP1;P1;durP2;ratioP2;P2;SDS_P1;SDS_P2;PMS_P1;PMS_P2;Temp;Humidity;BMP_temperature;BMP_pressure;BME280_temperature;BME280_humidity;BME280_pressure;Samples;Min_cycle;Max_cycle;Signal;HPM_P1;HPM_P2
2021/09/12 00:00:00;;;;;;;4.90;2.50;;;;;;;22.89;57.49;101509.06;5054599;28;20031;-59
2021/09/12 00:02:25;;;;;;;5.00;2.53;;;;;;;22.90;57.09;101516.22;5056155;28;20131;-57
2021/09/12 00:04:51;;;;;;;3.38;2.38;;;;;;;22.89;57.41;101512.66;5054896;28;20029;-57
2021/09/12 00:07:17;;;;;;;5.35;4.05;;;;;;;22.89;57.41;101511.78;5054101;28;20059;-58
2021/09/12 00:09:43;;;;;;;6.57;2.50;;;;;;;22.88;57.23;101519.19;5055823;28;20074;-56
2021/09/12 00:12:09;;;;;;;4.72;2.47;;;;;;;22.88;57.36;101518.38;5054633;28;20029;-57
2021/09/12 00:14:35;;;;;;;3.97;2.47;;;;;;;22.88;57.36;101523.84;5069680;28;20021;-57
2021/09/12 00:17:00;;;;;;;4.32;2.30;;;;;;;22.88;57.35;101518.38;5053030;28;20438;-59
2021/09/12 00:19:26;;;;;;;5.38;2.60;;;;;;;22.87;57.11;101508.47;5055894;28;20051;-57
2021/09/12 00:21:52;;;;;;;3.30;2.40;;;;;;;22.87;57.26;101519.44;5055571;28;20043;-59
2021/09/12 00:24:19;;;;;;;7.43;2.30;;;;;;;22.86;57.30;101523.25;5052924;28;20035;-57
2021/09/12 00:26:45;;;;;;;3.00;2.22;;;;;;;22.86;57.25;101517.75;5057139;28;20037;-57
2021/09/12 00:29:10;;;;;;;4.40;2.05;;;;;;;22.86;57.24;101518.59;5051732;28;21599;-59
2021/09/12 00:31:36;;;;;;;4.07;2.40;;;;;;;22.86;57.44;101528.72;5051810;28;20162;-60
2021/09/12 00:34:02;;;;;;;3.78;2.30;;;;;;;22.85;57.04;101524.34;5051067;28;20469;-58
2021/09/12 00:36:27;;;;;;;4.53;2.10;;;;;;;22.85;57.39;101516.09;5053282;28;20036;-58
2021/09/12 00:38:53;;;;;;;3.28;2.13;;;;;;;22.85;57.44;101513.38;5050926;28;20036;-57
2021/09/12 00:41:19;;;;;;;3.92;2.08;;;;;;;22.83;57.21;101508.09;5054652;28;20085;-54
2021/09/12 00:43:44;;;;;;;6.43;2.30;;;;;;;22.85;57.28;101510.63;5055889;28;20028;-56
2021/09/12 00:46:11;;;;;;;3.97;2.15;;;;;;;22.84;57.33;101515.28;5052129;28;20032;-58
2021/09/12 00:48:37;;;;;;;4.72;2.10;;;;;;;22.82;57.25;101512.75;5055473;28;20992;-59
2021/09/12 00:51:04;;;;;;;2.78;2.10;;;;;;;22.83;57.33;101516.34;5052856;28;20039;-59
2021/09/12 00:53:32;;;;;;;5.50;2.50;;;;;;;22.82;57.15;101507.28;5050537;28;20059;-58
2021/09/12 00:56:00;;;;;;;3.13;2.28;;;;;;;22.83;57.07;101505.38;5067362;28;20544;-59
2021/09/12 00:58:28;;;;;;;2.90;2.00;;;;;;;22.81;57.38;101513.84;5053387;28;20052;-57
2021/09/12 01:00:53;;;;;;;4.13;2.13;;;;;;;22.80;57.23;101503.94;5053592;28;20028;-57
2021/09/12 01:03:19;;;;;;;2.83;2.00;;;;;;;22.81;57.03;101508.38;5055703;28;20032;-58
2021/09/12 01:05:45;;;;;;;4.53;2.00;;;;;;;22.81;56.96;101507.50;5052723;28;20361;-58
2021/09/12 01:08:11;;;;;;;3.50;2.30;;;;;;;22.80;57.01;101512.16;5052509;28;20082;-58
2021/09/12 01:10:37;;;;;;;6.47;2.20;;;;;;;22.81;57.25;101513.00;5050831;28;20032;-57
2021/09/12 01:13:04;;;;;;;3.95;2.10;;;;;;;22.80;57.10;101509.41;5053272;28;20103;-56
2021/09/12 01:15:31;;;;;;;4.53;2.22;;;;;;;22.77;57.04;101511.81;5054395;28;20028;-58
2021/09/12 01:17:57;;;;;;;3.17;2.00;;;;;;;22.80;57.05;101505.84;5053670;28;20119;-59
2021/09/12 01:20:23;;;;;;;3.72;2.03;;;;;;;22.79;57.04;101510.50;5052453;28;20395;-59
2021/09/12 01:22:49;;;;;;;4.13;1.90;;;;;;;22.78;57.12;101508.84;5057785;28;20093;-56
2021/09/12 01:25:15;;;;;;;3.45;1.70;;;;;;;22.78;57.18;101497.88;5055553;28;20033;-57
2021/09/12 01:27:41;;;;;;;3.80;1.90;;;;;;;22.78;57.33;101503.38;5049027;28;20406;-60
2021/09/12 01:30:07;;;;;;;2.65;2.00;;;;;;;22.78;57.25;101499.75;5050828;28;20090;-60
2021/09/12 01:32:33;;;;;;;5.18;2.10;;;;;;;22.77;57.17;101493.47;5053425;28;20029;-58
2021/09/12 01:34:59;;;;;;;3.10;1.92;;;;;;;22.78;56.96;101505.25;5056306;28;20044;-58
2021/09/12 01:37:25;;;;;;;4.50;2.20;;;;;;;22.78;57.04;101506.09;5056428;28;20036;-57
2021/09/12 01:39:50;;;;;;;3.22;2.00;;;;;;;22.77;57.06;101504.41;5053419;28;20049;-60
2021/09/12 01:42:16;;;;;;;4.10;1.80;;;;;;;22.76;56.91;101508.25;5054319;28;20013;-57
2021/09/12 01:44:48;;;;;;;3.85;1.80;;;;;;;22.77;56.93;101507.16;5054095;28;20086;-58
2021/09/12 01:47:14;;;;;;;3.28;2.58;;;;;;;22.77;56.71;101506.34;5054608;28;20028;-59
2021/09/12 01:49:41;;;;;;;3.53;2.20;;;;;;;22.76;56.90;101508.25;5054994;28;20040;-59
2021/09/12 01:52:11;;;;;;;3.33;1.90;;;;;;;22.76;57.08;101502.75;5055446;28;20039;-56
2021/09/12 01:54:37;;;;;;;3.17;1.90;;;;;;;22.76;56.90;101497.28;5055601;28;20028;-57
2021/09/12 01:57:02;;;;;;;5.22;2.17;;;;;;;22.76;57.08;101499.19;5062381;28;20032;-58
2021/09/12 01:59:28;;;;;;;5.90;2.03;;;;;;;22.74;56.66;101499.41;5067148;28;20032;-57
2021/09/12 02:01:53;;;;;;;4.10;2.00;;;;;;;22.75;56.97;101506.56;5064567;28;20082;-57
2021/09/12 02:04:19;;;;;;;2.88;1.70;;;;;;;22.73;57.02;101500.50;5058216;28;20036;-55
2021/09/12 02:06:44;;;;;;;3.15;1.92;;;;;;;22.73;56.82;101496.91;5059559;28;20025;-58
2021/09/12 02:09:10;;;;;;;3.90;2.25;;;;;;;22.74;56.86;101493.09;5058819;28;20040;-58
2021/09/12 02:11:36;;;;;;;5.90;2.20;;;;;;;22.74;56.92;101488.44;5057986;28;21171;-59
2021/09/12 02:14:01;;;;;;;2.50;1.77;;;;;;;22.73;56.99;101486.81;5059642;28;20035;-56
2021/09/12 02:16:27;;;;;;;5.07;1.90;;;;;;;22.72;56.65;101485.09;5058288;28;20024;-58
2021/09/12 02:18:53;;;;;;;3.30;2.10;;;;;;;22.71;56.87;101486.19;5055741;28;20028;-56
2021/09/12 02:21:18;;;;;;;3.05;1.67;;;;;;;22.73;56.71;101486.81;5058388;28;20021;-57
2021/09/12 02:23:44;;;;;;;4.03;1.90;;;;;;;22.72;56.54;101485.09;5061956;28;20078;-55
2021/09/12 02:26:10;;;;;;;4.28;1.90;;;;;;;22.71;56.90;101471.66;5056317;28;21262;-59
2021/09/12 02:28:35;;;;;;;2.63;1.80;;;;;;;22.72;56.83;101479.63;5051894;28;20025;-58
2021/09/12 02:31:01;;;;;;;4.63;1.60;;;;;;;22.68;56.86;101478.44;5053530;28;20523;-60
2021/09/12 02:33:26;;;;;;;3.17;1.70;;;;;;;22.72;56.72;101489.75;5057574;28;20016;-57
2021/09/12 02:35:52;;;;;;;3.33;2.10;;;;;;;22.71;56.80;101477.16;5063166;28;20433;-58
2021/09/12 02:38:18;;;;;;;3.20;1.67;;;;;;;22.70;56.61;101478.19;5056440;28;20390;-57
2021/09/12 02:40:43;;;;;;;2.58;1.67;;;;;;;22.71;56.64;101482.63;5056957;28;20031;-57
2021/09/12 02:43:09;;;;;;;3.35;1.67;;;;;;;22.70;56.77;101487.25;5054583;28;20028;-56
2021/09/12 02:45:35;;;;;;;2.33;1.73;;;;;;;22.71;56.58;101482.63;5061681;28;20028;-57
2021/09/12 02:48:01;;;;;;;3.42;2.00;;;;;;;22.69;56.81;101485.59;5056625;28;20085;-57
2021/09/12 02:50:28;;;;;;;3.35;1.70;;;;;;;22.70;56.65;101476.28;5056088;28;20196;-58
2021/09/12 02:52:54;;;;;;;4.35;1.90;;;;;;;22.69;56.65;101480.09;5057591;28;20062;-57
2021/09/12 02:55:19;;;;;;;2.38;1.50;;;;;;;22.69;56.62;101471.88;5061213;28;20029;-58
2021/09/12 02:57:45;;;;;;;3.28;1.90;;;;;;;22.69;56.64;101469.16;5065037;28;20448;-54
2021/09/12 03:00:11;;;;;;;62.30;4.95;;;;;;;22.69;56.85;101471.88;5057764;28;20085;-57
2021/09/12 03:02:37;;;;;;;35.00;3.85;;;;;;;22.69;56.57;101477.38;5055883;28;20017;-56
2021/09/12 03:05:03;;;;;;;9.52;2.38;;;;;;;22.69;56.27;101469.16;5056702;28;20114;-57
2021/09/12 03:07:29;;;;;;;11.13;2.42;;;;;;;22.69;56.41;101466.41;5056254;28;20036;-58
2021/09/12 03:09:54;;;;;;;5.53;2.08;;;;;;;22.68;56.43;101467.50;5058750;28;20028;-58
2021/09/12 03:12:20;;;;;;;5.20;2.25;;;;;;;22.69;56.55;101468.31;5051960;28;20097;-58
2021/09/12 03:14:45;;;;;;;2.42;1.60;;;;;;;22.68;56.39;101475.72;5053428;28;20691;-58
2021/09/12 03:17:12;;;;;;;2.53;1.67;;;;;;;22.68;56.57;101478.44;5054620;28;20399;-57
2021/09/12 03:19:37;;;;;;;4.53;2.03;;;;;;;22.66;56.40;101475.13;5060217;28;20025;-58
2021/09/12 03:22:04;;;;;;;3.92;1.88;;;;;;;22.67;56.53;101473.19;5061127;28;20107;-56
2021/09/12 03:24:29;;;;;;;6.18;1.75;;;;;;;22.67;56.76;101474.03;5056928;28;20099;-58
2021/09/12 03:26:55;;;;;;;4.50;1.67;;;;;;;22.66;56.49;101480.59;5057177;28;20119;-58
2021/09/12 03:29:21;;;;;;;4.78;1.83;;;;;;;22.66;56.46;101480.59;5054221;28;20032;-57
2021/09/12 03:31:46;;;;;;;6.57;2.00;;;;;;;22.66;56.46;101474.28;5052790;28;20024;-56
2021/09/12 03:34:12;;;;;;;3.63;2.03;;;;;;;22.66;56.44;101469.63;5056216;28;20021;-58
2021/09/12 03:36:38;;;;;;;3.22;1.85;;;;;;;22.65;56.55;101473.44;5059445;28;20044;-57
2021/09/12 03:39:04;;;;;;;2.70;1.67;;;;;;;22.65;56.77;101473.44;5054825;28;20407;-58
2021/09/12 03:41:29;;;;;;;4.00;1.90;;;;;;;22.60;56.57;101479.66;5050617;28;20052;-57
2021/09/12 03:43:55;;;;;;;3.17;1.88;;;;;;;22.65;56.67;101484.41;5051572;28;20040;-57
2021/09/12 03:46:21;;;;;;;5.00;1.73;;;;;;;22.65;56.46;101486.31;5053919;28;20093;-57
2021/09/12 03:48:46;;;;;;;5.63;2.05;;;;;;;22.64;56.48;101481.91;5053768;28;20056;-59
2021/09/12 03:51:12;;;;;;;3.30;1.67;;;;;;;22.64;56.40;101481.91;5056820;28;20398;-58
2021/09/12 03:53:38;;;;;;;4.28;1.70;;;;;;;22.63;56.52;101486.56;5064372;28;20067;-58
2021/09/12 03:56:04;;;;;;;3.55;1.80;;;;;;;22.63;56.50;101486.56;5064659;28;20082;-58
2021/09/12 03:58:30;;;;;;;3.67;1.50;;;;;;;22.62;56.49;101482.13;5053414;28;20960;-55
2021/09/12 04:00:56;;;;;;;3.72;1.83;;;;;;;22.63;56.60;101485.72;5051398;28;20032;-58
2021/09/12 04:03:22;;;;;;;4.05;1.83;;;;;;;22.62;56.45;101484.88;5052755;28;20028;-58
2021/09/12 04:05:47;;;;;;;3.05;1.52;;;;;;;22.63;56.83;101488.47;5054351;28;20111;-58
2021/09/12 04:08:13;;;;;;;2.97;1.73;;;;;;;22.61;56.54;101486.78;5056002;28;20114;-57
2021/09/12 04:10:39;;;;;;;3.65;1.80;;;;;;;22.62;56.45;101493.09;5056909;28;20056;-57
2021/09/12 04:13:04;;;;;;;3.75;1.60;;;;;;;22.60;56.61;101490.59;5055773;28;20403;-58
2021/09/12 04:15:30;;;;;;;2.40;1.60;;;;;;;22.61;56.55;101491.44;5054988;28;20410;-58
2021/09/12 04:17:55;;;;;;;3.42;1.80;;;;;;;22.61;56.75;101491.44;5063344;28;20024;-58
2021/09/12 04:20:21;;;;;;;4.18;1.70;;;;;;;22.60;56.61;101487.03;5053666;28;20028;-55
2021/09/12 04:22:47;;;;;;;2.90;1.67;;;;;;;22.59;56.64;101486.19;5052292;28;20072;-57
2021/09/12 04:25:12;;;;;;;4.13;1.83;;;;;;;22.59;56.34;101488.09;5052629;28;20455;-59
2021/09/12 04:27:38;;;;;;;3.60;1.67;;;;;;;22.59;56.21;101488.09;5050470;28;20455;-58
2021/09/12 04:30:05;;;;;;;2.90;1.73;;;;;;;22.59;56.32;101491.66;5055053;28;20025;-60
2021/09/12 04:32:31;;;;;;;3.33;1.85;;;;;;;22.56;56.47;101481.19;5053316;28;20081;-57
2021/09/12 04:34:56;;;;;;;5.72;1.95;;;;;;;22.58;56.53;101481.78;5054962;28;20024;-57
2021/09/12 04:37:22;;;;;;;3.55;1.70;;;;;;;22.59;56.61;101482.59;5056115;28;20028;-56
2021/09/12 04:39:47;;;;;;;2.70;1.73;;;;;;;22.59;56.57;101479.88;5055691;28;20029;-56
2021/09/12 04:42:13;;;;;;;2.20;1.60;;;;;;;22.58;56.37;101483.69;5055947;28;20380;-58
2021/09/12 04:44:39;;;;;;;3.13;1.67;;;;;;;22.56;56.29;101480.34;5056154;28;20028;-57
2021/09/12 04:47:04;;;;;;;2.40;1.60;;;;;;;22.57;56.29;101482.88;5055687;28;20044;-57
2021/09/12 04:49:30;;;;;;;2.42;1.50;;;;;;;22.58;56.39;101486.44;5055087;28;20542;-57
2021/09/12 04:51:56;;;;;;;2.25;1.40;;;;;;;22.57;56.54;101487.50;5055174;28;20028;-59
2021/09/12 04:54:21;;;;;;;2.53;1.63;;;;;;;22.56;56.32;101477.63;5052322;28;20920;-59
2021/09/12 04:56:47;;;;;;;21.75;2.38;;;;;;;22.57;56.34;101479.28;5054849;28;20021;-56
2021/09/12 04:59:13;;;;;;;3.25;1.70;;;;;;;22.57;56.53;101476.53;5054887;28;20766;-57
2021/09/12 05:01:39;;;;;;;4.78;1.67;;;;;;;22.56;56.60;101483.91;5053320;28;20048;-54
2021/09/12 05:04:04;;;;;;;33.70;4.05;;;;;;;22.57;56.21;101480.13;5055279;28;20028;-59
2021/09/12 05:06:30;;;;;;;8.80;2.00;;;;;;;22.56;56.50;101475.69;5052602;28;20040;-58
2021/09/12 05:08:56;;;;;;;8.55;1.95;;;;;;;22.56;56.10;101478.44;5055665;28;20036;-60
2021/09/12 05:11:21;;;;;;;12.80;2.40;;;;;;;22.55;56.37;101485.00;5054720;28;20071;-56
2021/09/12 05:13:47;;;;;;;12.25;1.98;;;;;;;22.56;56.30;101488.56;5055008;28;20047;-57
2021/09/12 05:16:13;;;;;;;5.80;2.42;;;;;;;22.55;55.99;101486.91;5056003;28;20130;-58
2021/09/12 05:18:38;;;;;;;6.45;1.73;;;;;;;22.55;55.86;101478.69;5054554;28;20024;-59
2021/09/12 05:21:04;;;;;;;2.45;1.60;;;;;;;22.54;56.06;101477.84;5051602;28;20025;-58
2021/09/12 05:23:30;;;;;;;2.88;1.75;;;;;;;22.54;56.12;101477.84;5052326;28;20117;-56
2021/09/12 05:25:56;;;;;;;3.95;1.42;;;;;;;22.52;56.26;101479.16;5055602;28;20058;-57
2021/09/12 05:28:21;;;;;;;5.30;1.50;;;;;;;22.54;55.88;101477.00;5056916;28;20028;-56
2021/09/12 05:30:47;;;;;;;2.58;1.75;;;;;;;22.53;55.99;101478.09;5054699;28;20125;-57
2021/09/12 05:33:13;;;;;;;4.28;1.80;;;;;;;22.53;56.13;101478.09;5055201;28;20035;-56
2021/09/12 05:35:39;;;;;;;4.22;1.63;;;;;;;22.53;55.77;101483.56;5054235;28;20028;-56
2021/09/12 05:38:05;;;;;;;3.97;1.50;;;;;;;22.53;56.06;101480.84;5059032;28;20024;-57
2021/09/12 05:40:30;;;;;;;3.50;1.50;;;;;;;22.52;55.80;101481.88;5058348;28;20399;-60
2021/09/12 05:42:56;;;;;;;2.53;1.70;;;;;;;22.52;55.96;101484.63;5055052;28;20033;-58
2021/09/12 05:45:21;;;;;;;4.88;1.60;;;;;;;22.51;56.16;101494.75;5049934;28;20029;-58
2021/09/12 05:47:47;;;;;;;3.08;1.55;;;;;;;22.52;55.99;101482.75;5052420;28;20053;-58
2021/09/12 05:50:14;;;;;;;3.53;1.42;;;;;;;22.51;55.94;101483.78;5055172;28;20194;-58
2021/09/12 05:52:39;;;;;;;2.20;1.55;;;;;;;22.50;56.13;101473.91;5056971;28;20913;-58
2021/09/12 05:55:06;;;;;;;2.90;1.50;;;;;;;22.51;55.94;101474.75;5060707;28;20082;-57
2021/09/12 05:57:31;;;;;;;3.70;1.60;;;;;;;22.51;56.24;101474.75;5060481;28;20116;-58
2021/09/12 05:59:57;;;;;;;4.18;1.50;;;;;;;22.50;56.07;101473.09;5057832;28;20058;-58
2021/09/12 06:02:23;;;;;;;4.38;1.70;;;;;;;22.49;55.89;101471.41;5057711;28;20930;-58
2021/09/12 06:04:48;;;;;;;5.40;1.80;;;;;;;22.48;55.95;101473.31;5059285;28;20032;-55
2021/09/12 06:07:14;;;;;;;3.50;1.55;;;;;;;22.48;55.99;101470.56;5057726;28;20050;-53
2021/09/12 06:09:40;;;;;;;2.33;1.60;;;;;;;22.48;55.77;101470.56;5056215;28;20557;-55
2021/09/12 06:12:06;;;;;;;2.40;1.73;;;;;;;22.48;55.98;101477.97;5054885;28;20062;-57
2021/09/12 06:14:32;;;;;;;2.13;1.40;;;;;;;22.48;56.00;101475.22;5062976;28;20028;-56
2021/09/12 06:16:58;;;;;;;3.92;2.00;;;;;;;22.47;55.70;101487.28;5061774;28;20016;-57
2021/09/12 06:19:23;;;;;;;4.82;2.03;;;;;;;22.47;55.58;101487.28;5059265;28;20783;-57
2021/09/12 06:21:49;;;;;;;6.82;1.60;;;;;;;22.47;55.60;101498.25;5058322;28;20012;-58
2021/09/12 06:24:15;;;;;;;3.45;1.50;;;;;;;22.47;55.60;101498.25;5054377;28;20111;-57
2021/09/12 06:26:41;;;;;;;5.43;1.70;;;;;;;22.46;55.90;101496.53;5062315;28;20693;-57
2021/09/12 06:29:07;;;;;;;3.22;1.60;;;;;;;22.44;55.64;101495.94;5057686;28;20032;-57
2021/09/12 06:31:32;;;;;;;4.18;1.42;;;;;;;22.46;55.70;101505.59;5061896;28;20033;-58
2021/09/12 06:33:58;;;;;;;3.22;1.60;;;;;;;22.45;55.99;101506.69;5060108;28;20033;-58
2021/09/12 06:36:24;;;;;;;6.65;1.60;;;;;;;22.46;56.01;101510.25;5064079;28;20051;-57
2021/09/12 06:38:49;;;;;;;3.85;1.50;;;;;;;22.44;55.85;101504.16;5061309;28;20021;-57
2021/09/12 06:41:15;;;;;;;4.20;2.40;;;;;;;22.45;55.88;101511.34;5067517;28;20037;-57
2021/09/12 06:43:42;;;;;;;3.78;1.40;;;;;;;22.45;55.74;101512.16;5066855;28;20044;-58
2021/09/12 06:46:07;;;;;;;3.55;1.50;;;;;;;22.45;55.97;101508.59;5063625;28;20071;-56
2021/09/12 06:48:33;;;;;;;4.78;1.30;;;;;;;22.44;55.87;101515.13;5062363;28;20021;-58
2021/09/12 06:50:58;;;;;;;43.05;3.65;;;;;;;22.45;55.78;101519.56;5063543;28;20032;-57
2021/09/12 06:53:24;;;;;;;76.88;6.65;;;;;;;22.45;55.78;101519.56;5065073;28;20038;-58
2021/09/12 06:55:50;;;;;;;75.03;6.25;;;;;;;22.44;55.86;101515.97;5059199;28;20028;-56
2021/09/12 06:58:17;;;;;;;22.42;2.60;;;;;;;22.44;55.66;101526.94;5060332;28;20373;-57
2021/09/12 07:00:42;;;;;;;21.10;2.33;;;;;;;22.43;55.87;101519.78;5064206;28;20028;-57
2021/09/12 07:03:08;;;;;;;7.30;1.65;;;;;;;22.44;55.52;101526.09;5060534;28;20453;-59
2021/09/12 07:05:34;;;;;;;5.70;1.60;;;;;;;22.43;55.37;101524.44;5062998;28;20021;-59
2021/09/12 07:07:59;;;;;;;3.50;1.40;;;;;;;22.42;55.25;101525.50;5060001;28;20032;-58
2021/09/12 07:10:25;;;;;;;2.92;1.42;;;;;;;22.43;55.38;101528.00;5064152;28;20434;-59
2021/09/12 07:12:51;;;;;;;6.32;1.70;;;;;;;22.42;55.22;101528.25;5067762;28;20031;-56
2021/09/12 07:15:17;;;;;;;3.65;1.50;;;;;;;22.42;55.34;101533.72;5065419;28;20049;-58
2021/09/12 07:17:42;;;;;;;2.67;1.50;;;;;;;22.41;55.56;101532.03;5064580;28;20132;-58
2021/09/12 07:20:09;;;;;;;4.97;1.50;;;;;;;22.43;55.63;101540.88;5063143;28;20032;-58
2021/09/12 07:22:34;;;;;;;2.63;1.42;;;;;;;22.43;55.85;101535.38;5054462;28;20016;-58
2021/09/12 07:25:00;;;;;;;4.55;1.70;;;;;;;22.43;55.67;101543.59;5066660;28;20746;-58
2021/09/12 07:27:26;;;;;;;3.70;1.52;;;;;;;22.43;55.44;101540.88;5063193;28;20020;-58
2021/09/12 07:29:51;;;;;;;4.28;1.45;;;;;;;22.43;55.72;101540.88;5061395;28;20032;-57
2021/09/12 07:32:17;;;;;;;2.63;1.70;;;;;;;22.43;55.40;101538.97;5056734;28;20464;-56
2021/09/12 07:34:42;;;;;;;2.85;1.20;;;;;;;22.43;55.51;101541.69;5063406;28;20056;-57
2021/09/12 07:37:08;;;;;;;5.05;1.60;;;;;;;22.43;55.86;101544.44;5070533;28;20051;-57
2021/09/12 07:39:34;;;;;;;5.95;1.45;;;;;;;22.43;55.61;101549.09;5063756;28;20036;-56
2021/09/12 07:42:01;;;;;;;2.30;1.42;;;;;;;22.43;55.26;101546.34;5055782;28;20732;-57
2021/09/12 07:44:26;;;;;;;3.95;1.50;;;;;;;22.42;55.48;101547.44;5055384;28;20075;-58
2021/09/12 07:46:52;;;;;;;3.88;1.60;;;;;;;22.44;55.57;101553.50;5067560;28;20053;-56
2021/09/12 07:49:18;;;;;;;5.95;1.90;;;;;;;22.44;55.32;101558.97;5058778;28;20071;-58
2021/09/12 07:51:44;;;;;;;2.97;1.40;;;;;;;22.45;55.51;101552.44;5063953;28;20029;-58
2021/09/12 07:54:09;;;;;;;2.58;1.48;;;;;;;22.44;55.48;101553.50;5067892;28;20034;-58
2021/09/12 07:56:35;;;;;;;1.90;1.40;;;;;;;22.44;55.91;101562.56;5057388;28;20021;-57
2021/09/12 07:59:00;;;;;;;3.08;1.45;;;;;;;22.45;55.95;101560.66;5074131;28;20475;-59
2021/09/12 08:01:26;;;;;;;3.25;1.50;;;;;;;22.45;56.11;101566.97;5058579;28;20202;-56
2021/09/12 08:03:51;;;;;;;3.15;1.73;;;;;;;22.44;55.69;101561.72;5013040;28;20048;-59
2021/09/12 08:06:17;;;;;;;3.08;1.33;;;;;;;22.44;55.79;101562.56;5061691;28;20503;-55
2021/09/12 08:08:43;;;;;;;4.40;1.70;;;;;;;22.45;55.83;101557.91;5064712;28;20036;-57
2021/09/12 08:11:08;;;;;;;3.47;1.58;;;;;;;22.45;55.73;101560.66;5000986;28;20033;-57
2021/09/12 08:13:34;;;;;;;3.60;1.50;;;;;;;22.45;55.84;101560.66;5015463;28;20046;-56
2021/09/12 08:15:59;;;;;;;2.60;1.40;;;;;;;22.45;55.79;101566.97;5036427;28;20416;-58
2021/09/12 08:18:25;;;;;;;3.72;1.48;;;;;;;22.46;55.73;101556.84;5033702;28;20415;-57
2021/09/12 08:20:51;;;;;;;3.55;1.90;;;;;;;22.47;55.93;101547.56;5036540;28;20029;-55
2021/09/12 08:23:16;;;;;;;6.45;2.55;;;;;;;22.47;55.91;101544.81;5033335;28;20063;-56
2021/09/12 08:25:42;;;;;;;8.20;3.03;;;;;;;22.46;55.57;101546.69;5032390;28;20463;-57
2021/09/12 08:28:08;;;;;;;9.95;3.65;;;;;;;22.48;55.75;101550.06;5043548;28;20032;-59
2021/09/12 08:30:33;;;;;;;7.40;3.40;;;;;;;22.47;55.19;101540.16;5036704;28;20102;-54
2021/09/12 08:33:00;;;;;;;8.43;3.90;;;;;;;22.47;55.44;101551.13;5034449;28;20033;-57
2021/09/12 08:35:27;;;;;;;13.73;5.28;;;;;;;22.49;55.28;101556.34;5041286;28;20025;-54
2021/09/12 08:37:55;;;;;;;10.80;5.05;;;;;;;22.50;55.40;101560.78;5036434;28;20037;-59
2021/09/12 08:40:20;;;;;;;10.02;5.20;;;;;;;22.51;55.06;101565.19;5037318;28;20798;-59
2021/09/12 08:42:46;;;;;;;9.95;4.80;;;;;;;22.52;55.14;101561.38;5040394;28;20052;-59
2021/09/12 08:45:12;;;;;;;8.45;4.60;;;;;;;22.51;55.17;101555.06;5041246;28;20120;-57
2021/09/12 08:47:40;;;;;;;10.73;4.70;;;;;;;22.52;55.50;101553.13;5034175;28;20391;-55
2021/09/12 08:50:06;;;;;;;14.82;6.60;;;;;;;22.52;55.59;101558.63;5034890;28;20024;-56
2021/09/12 08:52:31;;;;;;;17.13;6.15;;;;;;;22.53;55.33;101563.06;5032587;28;20048;-57
2021/09/12 08:54:57;;;;;;;13.23;5.78;;;;;;;22.53;55.55;101563.06;5029702;28;20025;-56
2021/09/12 08:57:23;;;;;;;15.52;6.93;;;;;;;22.53;55.41;101561.13;5038293;28;20036;-60
2021/09/12 08:59:50;;;;;;;14.25;6.18;;;;;;;22.54;55.46;101565.53;5040887;28;20384;-59
2021/09/12 09:02:16;;;;;;;14.40;5.90;;;;;;;22.55;55.62;101572.72;5031381;28;20091;-60
2021/09/12 09:04:42;;;;;;;11.93;5.90;;;;;;;22.55;55.78;101563.66;5035062;28;20032;-59
2021/09/12 09:07:10;;;;;;;13.18;6.20;;;;;;;22.56;55.76;101570.78;5041984;28;20033;-59
2021/09/12 09:09:47;;;;;;;13.75;6.57;;;;;;;22.54;55.80;101573.75;5038293;28;20446;-59
2021/09/12 09:12:37;;;;;;;13.48;5.88;;;;;;;22.57;55.71;101575.19;5034748;28;20038;-58
2021/09/12 09:15:10;;;;;;;15.05;5.78;;;;;;;22.57;55.61;101572.47;5029822;28;20028;-58
2021/09/12 09:17:43;;;;;;;16.25;6.05;;;;;;;22.59;55.73;101573.88;5027227;28;20112;-58
2021/09/12 09:20:11;;;;;;;13.43;6.55;;;;;;;22.60;55.50;101580.22;5027265;28;20108;-58
2021/09/12 09:22:40;;;;;;;13.00;6.15;;;;;;;22.61;55.56;101579.16;5030576;28;20104;-58
2021/09/12 09:25:22;;;;;;;14.93;6.20;;;;;;;22.61;55.55;101579.16;5036844;28;20025;-60
2021/09/12 09:28:01;;;;;;;13.52;5.97;;;;;;;22.63;55.50;101584.41;5037106;28;20025;-59
2021/09/12 09:30:32;;;;;;;12.93;5.95;;;;;;;22.63;55.75;101582.50;5035413;28;20040;-59
2021/09/12 09:33:17;;;;;;;13.20;5.50;;;;;;;22.65;55.77;101590.47;5038698;28;20025;-59
2021/09/12 09:36:01;;;;;;;10.93;5.35;;;;;;;22.64;55.59;101586.91;5033385;28;20491;-59
2021/09/12 09:38:30;;;;;;;14.55;6.10;;;;;;;22.64;55.64;101586.06;5034847;28;20052;-58
2021/09/12 09:41:01;;;;;;;13.27;6.25;;;;;;;22.65;55.31;101588.59;5039398;28;20032;-57
2021/09/12 09:43:39;;;;;;;14.57;5.70;;;;;;;22.67;55.34;101589.16;5036964;28;20025;-56
2021/09/12 09:46:05;;;;;;;11.38;6.38;;;;;;;22.67;55.41;101591.91;5035725;28;20071;-55
2021/09/12 09:48:35;;;;;;;13.57;5.60;;;;;;;22.68;55.34;101588.09;5040827;28;20083;-53
2021/09/12 09:51:04;;;;;;;12.98;5.85;;;;;;;22.69;55.16;101592.50;5033728;28;20079;-58
2021/09/12 09:53:34;;;;;;;9.63;5.10;;;;;;;22.68;55.21;101590.00;5039673;28;20024;-56
2021/09/12 09:56:01;;;;;;;11.50;4.95;;;;;;;22.69;55.17;101595.25;5028159;28;20115;-58
2021/09/12 09:58:27;;;;;;;12.27;5.90;;;;;;;22.68;55.06;101593.59;5038537;28;20033;-55
2021/09/12 10:00:53;;;;;;;14.10;5.50;;;;;;;22.69;55.00;101599.91;5031984;28;20373;-56
2021/09/12 10:03:19;;;;;;;15.15;5.30;;;;;;;22.69;55.16;101589.75;5035238;28;20047;-58
2021/09/12 10:05:45;;;;;;;12.32;5.47;;;;;;;22.70;55.08;101587.84;5032071;28;20087;-57
2021/09/12 10:08:12;;;;;;;12.38;5.20;;;;;;;22.70;55.20;101583.19;5040100;28;20033;-59
2021/09/12 10:10:38;;;;;;;10.93;5.28;;;;;;;22.69;55.06;101584.28;5039504;28;20085;-57
2021/09/12 10:13:04;;;;;;;11.45;5.50;;;;;;;22.71;54.98;101586.81;5040331;28;20036;-56
2021/09/12 10:15:36;;;;;;;12.02;5.82;;;;;;;22.69;54.73;101592.50;5031780;28;20067;-56
2021/09/12 10:18:02;;;;;;;17.25;5.70;;;;;;;22.69;54.93;101586.19;5045228;28;20079;-55
2021/09/12 10:20:30;;;;;;;11.98;5.10;;;;;;;22.71;54.85;101581.31;5039222;28;20468;-56
2021/09/12 10:23:01;;;;;;;10.55;5.35;;;;;;;22.69;55.00;101575.22;5048196;28;20104;-55
2021/09/12 10:25:51;;;;;;;12.60;6.00;;;;;;;22.70;54.72;101569.50;5038691;28;20034;-58
2021/09/12 10:28:36;;;;;;;11.35;5.70;;;;;;;22.70;54.80;101569.50;5041241;28;20478;-57
2021/09/12 10:31:27;;;;;;;13.27;5.38;;;;;;;22.70;54.87;101574.97;5032632;28;20074;-56
2021/09/12 10:34:12;;;;;;;11.15;5.32;;;;;;;22.70;54.63;101569.50;5039919;28;20029;-59
2021/09/12 10:36:39;;;;;;;10.35;5.47;;;;;;;22.70;54.73;101571.41;5036683;28;20029;-56
2021/09/12 10:39:37;;;;;;;9.30;5.35;;;;;;;22.70;54.70;101569.50;5034888;28;20024;-59
2021/09/12 10:42:09;;;;;;;10.77;5.03;;;;;;;22.71;54.67;101567.59;5006256;28;20120;-56
2021/09/12 10:44:36;;;;;;;9.90;5.18;;;;;;;22.70;54.54;101566.75;5043294;28;20033;-55
2021/09/12 10:47:12;;;;;;;12.38;5.68;;;;;;;22.71;54.71;101567.59;5040305;28;20041;-57
2021/09/12 10:49:38;;;;;;;11.13;4.97;;;;;;;22.70;54.61;101561.28;5041614;28;20103;-57
2021/09/12 10:52:04;;;;;;;12.63;5.70;;;;;;;22.70;54.42;101568.66;5041853;28;20775;-55
2021/09/12 10:54:31;;;;;;;10.65;5.05;;;;;;;22.73;54.59;101560.81;5033697;28;20026;-58
2021/09/12 10:57:05;;;;;;;9.98;4.93;;;;;;;22.73;54.35;101563.56;5043271;28;20039;-56
2021/09/12 10:59:31;;;;;;;8.77;5.10;;;;;;;22.75;54.61;101560.56;5037903;28;20068;-57
2021/09/12 11:01:56;;;;;;;10.13;5.20;;;;;;;22.73;54.49;101557.22;5040869;28;20061;-57
2021/09/12 11:04:31;;;;;;;10.23;5.65;;;;;;;22.77;54.12;101562.00;5032699;28;20057;-58
2021/09/12 11:07:02;;;;;;;9.70;4.32;;;;;;;22.79;54.32;101573.56;5039811;28;20033;-60
2021/09/12 11:09:29;;;;;;;9.48;4.82;;;;;;;22.81;54.45;101567.81;5034105;28;20025;-57
2021/09/12 11:11:57;;;;;;;9.45;4.55;;;;;;;22.85;54.74;101569.03;5040067;28;20043;-57
2021/09/12 11:14:23;;;;;;;8.73;4.85;;;;;;;22.86;54.51;101567.94;5034688;28;20029;-59
2021/09/12 11:16:49;;;;;;;9.63;5.05;;;;;;;22.87;54.30;101563.31;5034118;28;20531;-57
2021/09/12 11:19:15;;;;;;;10.40;5.07;;;;;;;22.90;54.46;101560.94;5035168;28;20104;-58
2021/09/12 11:21:43;;;;;;;10.25;4.63;;;;;;;22.91;54.23;101556.28;5036108;28;20026;-59